Adamsville, AL

6:29 AM CST on November 24, 2014 (GMT -0600)
Birmingham International | Change Station
CLOSE
Current Station
Airport
Location: Birmingham,
Elevation: 630 ft
Nearby Weather Stations

Elev 630 ft 33.57 °N, 86.74 °W | Updated 36 minutes ago

Partly Cloudy
Partly Cloudy
64 °F
Feels Like 64 °F
N
14
Wind Variable Wind from SSW

Today
High -- | Low -- °F
--% Chance of Precip.
Yesterday
High -- | Low -- °F
Precip. -- in
6:27 AM 4:41 PM
Waxing Crescent, 5% visible
Pressure 29.73 in
Visibility 10.0 miles
Clouds Mostly Cloudy 2000 ft
Dew Point 59 °F
Humidity 84%
Rainfall 0.00 in
Snow Depth Not available.
UV 0 out of 12
Pollen 1.80 out of 12
Air Quality Not available.
Flu Activity Not available.
METAR KBHM 241153Z 21012KT 10SM BKN020 18/15 A2974 RMK AO2 SLP065 70092 T01780150 10178 20167 53010

More Conditions Fewer Conditions

Pressure 29.73 in
Visibility 10.0 miles
Clouds Mostly Cloudy 2000 ft
Dew Point 59 °F
Humidity 84%
Rainfall 0.00 in
Snow Depth Not available.
UV 0 out of 12
Pollen 1.80 out of 12
Air Quality Not available.
Flu Activity Not available.
METAR KBHM 241153Z 21012KT 10SM BKN020 18/15 A2974 RMK AO2 SLP065 70092 T01780150 10178 20167 53010

More Conditions Fewer Conditions

10-Day Weather Forecast

Almanac

Astronomy

Nov. 24, 2014 Rise Set
Actual Time
Civil Twilight
Nautical Twilight
Astronomical Twilight
Moon
Length of Visible Light
Length of Day
Tomorrow will be .
, % of the Moon is Illuminated

Today's Extremes

State Highs State Lows

Community

WunderPhotos

Upload Photos

1,773,319 photos uploaded!

WunderBlogs® & News

Nearby

Air Quality

  Air Quality AQ Index Pollutant
Not available.

Snow Depth

Station Depth Elevation

Earthquake Activity

City Distance Mag. Time & Date
Minimum magnitude displayed is 2.5.

Coastal Water Temperatures

Place Temperature

Nearby Weather Stations